Time;durP1;ratioP1;P1;durP2;ratioP2;P2;SDS_P1;SDS_P2;PMS_P1;PMS_P2;Temp;Humidity;BMP_temperature;BMP_pressure;BME280_temperature;BME280_humidity;BME280_pressure;Samples;Min_cycle;Max_cycle;Signal;HPM_P1;HPM_P2
2022/02/24 00:02:15;;;;;;;10.23;3.43;;;;;8.00;101267.00;;;;10071761;29;20193;-78
2022/02/24 00:07:18;;;;;;;15.47;4.27;;;;;8.00;101251.00;;;;10066074;29;20268;-78
2022/02/24 00:12:21;;;;;;;18.20;5.00;;;;;8.00;101243.00;;;;10056460;29;20217;-78
2022/02/24 00:17:23;;;;;;;15.67;4.10;;;;;8.10;101234.00;;;;10056922;29;20254;-78
2022/02/24 00:22:26;;;;;;;16.67;3.70;;;;;8.10;101224.00;;;;10049788;29;20240;-78
2022/02/24 00:27:28;;;;;;;12.10;3.50;;;;;8.10;101222.00;;;;10073250;29;20217;-78
2022/02/24 00:32:32;;;;;;;19.30;4.23;;;;;8.10;101214.00;;;;10064044;29;20245;-79
2022/02/24 00:37:34;;;;;;;10.70;3.80;;;;;8.10;101216.00;;;;10064544;29;20616;-79
2022/02/24 00:42:35;;;;;;;10.40;4.07;;;;;8.10;101202.00;;;;10025623;29;20197;-79
2022/02/24 00:47:37;;;;;;;16.40;4.33;;;;;8.20;101210.00;;;;10075056;29;20197;-78
2022/02/24 00:52:39;;;;;;;11.77;4.33;;;;;8.10;101203.00;;;;10047920;29;20292;-77
2022/02/24 00:57:41;;;;;;;15.90;4.00;;;;;8.10;101189.00;;;;10072461;29;20201;-78
2022/02/24 01:02:43;;;;;;;18.00;4.60;;;;;8.10;101185.00;;;;10066616;29;20205;-78
2022/02/24 01:07:47;;;;;;;11.77;3.90;;;;;8.20;101180.00;;;;10026074;29;20205;-78
2022/02/24 01:12:52;;;;;;;15.33;3.80;;;;;8.20;101163.00;;;;10070350;29;20222;-78
2022/02/24 01:17:54;;;;;;;14.13;4.13;;;;;8.20;101160.00;;;;10072007;29;20610;-78
2022/02/24 01:22:56;;;;;;;14.73;4.67;;;;;8.20;101160.00;;;;10039619;29;20221;-78
2022/02/24 01:27:59;;;;;;;14.20;3.80;;;;;8.20;101149.00;;;;10073362;29;20207;-78
2022/02/24 01:33:01;;;;;;;17.47;3.00;;;;;8.20;101154.00;;;;10044755;29;20231;-78
2022/02/24 01:38:03;;;;;;;11.07;3.00;;;;;8.20;101131.00;;;;10043743;29;20293;-78
2022/02/24 01:43:05;;;;;;;11.23;2.60;;;;;8.20;101132.00;;;;10025701;29;20193;-78
2022/02/24 01:48:07;;;;;;;11.23;3.10;;;;;8.20;101117.00;;;;10040074;29;20213;-78
2022/02/24 01:53:10;;;;;;;12.77;3.10;;;;;8.20;101095.00;;;;10072514;29;20238;-79
2022/02/24 01:58:16;;;;;;;17.00;3.80;;;;;8.20;101095.00;;;;10034406;29;20232;-81
2022/02/24 02:03:18;;;;;;;13.17;3.57;;;;;8.20;101091.00;;;;10038769;29;20198;-81
2022/02/24 02:08:21;;;;;;;11.90;3.87;;;;;8.10;101072.00;;;;10043298;29;20208;-80
2022/02/24 02:13:23;;;;;;;11.37;3.07;;;;;8.10;101068.00;;;;10020160;29;20213;-81
2022/02/24 02:18:25;;;;;;;8.30;3.00;;;;;8.20;101054.00;;;;10022319;29;20641;-81
2022/02/24 02:23:28;;;;;;;11.90;3.67;;;;;8.20;101056.00;;;;10027639;29;20269;-81
2022/02/24 02:28:30;;;;;;;12.53;3.00;;;;;8.20;101043.00;;;;10029361;29;20201;-81
2022/02/24 02:33:32;;;;;;;8.77;3.23;;;;;8.20;101032.00;;;;10059102;29;20193;-81
2022/02/24 02:38:35;;;;;;;8.80;2.90;;;;;8.20;101017.00;;;;10040350;29;20218;-81
2022/02/24 02:43:37;;;;;;;13.90;3.50;;;;;8.20;101017.00;;;;10060575;29;20517;-81
2022/02/24 02:48:39;;;;;;;16.77;4.03;;;;;8.10;101010.00;;;;10033961;29;20340;-80
2022/02/24 02:53:41;;;;;;;7.67;3.43;;;;;8.10;100999.00;;;;10010347;29;20213;-80
2022/02/24 02:58:43;;;;;;;7.87;3.07;;;;;8.10;100994.00;;;;10064706;29;20759;-81
2022/02/24 03:03:45;;;;;;;11.47;2.97;;;;;8.10;100990.00;;;;10040395;29;20209;-81
2022/02/24 03:08:47;;;;;;;11.20;2.80;;;;;8.10;100989.00;;;;10065050;29;20217;-82
2022/02/24 03:13:49;;;;;;;13.90;3.30;;;;;8.00;100979.00;;;;10061459;29;20241;-82
2022/02/24 03:18:51;;;;;;;14.03;3.37;;;;;8.00;100984.00;;;;10042508;29;20197;-82
2022/02/24 03:23:53;;;;;;;11.43;3.33;;;;;7.90;100976.00;;;;10015288;29;20225;-81
2022/02/24 03:28:55;;;;;;;12.43;3.83;;;;;7.90;100966.00;;;;9997858;29;20200;-81
2022/02/24 03:33:57;;;;;;;9.87;3.37;;;;;7.90;100961.00;;;;10033632;29;20208;-81
2022/02/24 03:38:59;;;;;;;9.63;3.47;;;;;7.90;100955.00;;;;10019601;29;20622;-82
2022/02/24 03:44:01;;;;;;;11.53;3.00;;;;;7.90;100955.00;;;;10045591;29;20233;-83
2022/02/24 03:49:03;;;;;;;15.57;3.63;;;;;7.90;100952.00;;;;10029565;29;20218;-82
2022/02/24 03:54:05;;;;;;;10.17;2.70;;;;;7.90;100946.00;;;;10045892;29;20209;-81
2022/02/24 03:59:07;;;;;;;10.17;2.30;;;;;7.90;100934.00;;;;10048611;29;20265;-81
2022/02/24 04:04:09;;;;;;;9.10;2.93;;;;;7.80;100928.00;;;;10064435;29;20205;-82
2022/02/24 04:09:11;;;;;;;8.33;2.43;;;;;7.70;100915.00;;;;10048270;29;20661;-81
2022/02/24 04:14:13;;;;;;;11.30;2.50;;;;;7.60;100910.00;;;;10024880;29;20222;-81
2022/02/24 04:19:16;;;;;;;8.37;3.47;;;;;7.40;100899.00;;;;10035502;29;20209;-81
2022/02/24 04:24:18;;;;;;;9.37;2.27;;;;;7.30;100902.00;;;;10063613;29;20324;-81
2022/02/24 04:29:20;;;;;;;8.50;2.40;;;;;7.30;100897.00;;;;10037718;29;20730;-81
2022/02/24 04:34:22;;;;;;;10.40;2.70;;;;;7.40;100891.00;;;;10062668;29;20220;-81
2022/02/24 04:39:24;;;;;;;6.43;2.17;;;;;7.40;100900.00;;;;10046037;29;20259;-81
2022/02/24 04:44:26;;;;;;;8.10;2.50;;;;;7.50;100879.00;;;;10026368;29;20577;-81
2022/02/24 04:49:28;;;;;;;10.77;2.77;;;;;7.50;100887.00;;;;10047154;29;20204;-81
2022/02/24 04:54:30;;;;;;;7.17;2.03;;;;;7.50;100857.00;;;;10016354;29;20212;-81
2022/02/24 04:59:31;;;;;;;9.80;2.60;;;;;7.50;100852.00;;;;10002090;29;20724;-80
2022/02/24 05:04:33;;;;;;;8.17;2.57;;;;;7.40;100848.00;;;;10015689;29;20200;-81
2022/02/24 05:09:35;;;;;;;6.27;2.30;;;;;7.40;100843.00;;;;10024177;29;20223;-80
2022/02/24 05:14:37;;;;;;;8.23;2.00;;;;;7.30;100827.00;;;;10011307;29;20221;-81
2022/02/24 05:19:40;;;;;;;7.20;2.90;;;;;7.20;100827.00;;;;10030182;29;20212;-81
2022/02/24 05:24:42;;;;;;;10.57;2.33;;;;;7.00;100822.00;;;;10030737;29;20581;-81
2022/02/24 05:29:45;;;;;;;8.67;2.50;;;;;6.80;100810.00;;;;10015867;29;20205;-81
2022/02/24 05:34:47;;;;;;;12.50;3.70;;;;;6.70;100801.00;;;;10061078;29;20592;-81
2022/02/24 05:39:50;;;;;;;11.17;3.67;;;;;6.60;100807.00;;;;10026374;29;20201;-81
2022/02/24 05:44:52;;;;;;;10.87;3.20;;;;;6.50;100787.00;;;;10021222;29;20194;-81
2022/02/24 05:49:54;;;;;;;10.33;3.20;;;;;6.50;100788.00;;;;10036795;29;20208;-81
2022/02/24 05:54:56;;;;;;;10.43;2.97;;;;;6.40;100773.00;;;;10029891;29;20221;-81
2022/02/24 05:59:58;;;;;;;6.70;2.40;;;;;6.40;100774.00;;;;10011348;29;20216;-81
2022/02/24 06:05:00;;;;;;;7.83;1.87;;;;;6.40;100760.00;;;;10016640;29;20197;-81
2022/02/24 06:10:05;;;;;;;13.00;2.37;;;;;6.30;100757.00;;;;10031093;29;20219;-82
2022/02/24 06:15:09;;;;;;;9.90;2.40;;;;;6.30;100748.00;;;;10052401;29;20232;-82
2022/02/24 06:20:11;;;;;;;8.47;2.50;;;;;6.40;100743.00;;;;10035990;29;20292;-81
2022/02/24 06:25:13;;;;;;;8.80;3.07;;;;;6.40;100733.00;;;;10030111;29;20663;-81
2022/02/24 06:30:15;;;;;;;12.20;2.03;;;;;6.40;100718.00;;;;10019100;29;20245;-81
2022/02/24 06:35:17;;;;;;;8.67;2.50;;;;;6.40;100715.00;;;;10020575;29;20285;-81
2022/02/24 06:40:19;;;;;;;5.47;2.17;;;;;6.40;100709.00;;;;10041591;29;20688;-81
2022/02/24 06:45:22;;;;;;;11.37;2.53;;;;;6.40;100701.00;;;;10066316;29;20200;-82
2022/02/24 06:50:24;;;;;;;9.37;2.33;;;;;6.50;100705.00;;;;10066735;29;20197;-81
2022/02/24 06:55:26;;;;;;;6.23;2.07;;;;;6.50;100685.00;;;;10066293;29;20220;-81
2022/02/24 07:00:27;;;;;;;16.00;2.70;;;;;6.70;100696.00;;;;10015958;29;20209;-82
2022/02/24 07:05:30;;;;;;;5.23;1.80;;;;;6.80;100697.00;;;;10022094;29;20209;-81
2022/02/24 07:10:31;;;;;;;8.40;2.57;;;;;6.90;100693.00;;;;10050379;29;20201;-81
2022/02/24 07:15:33;;;;;;;9.90;3.13;;;;;7.00;100694.00;;;;10027576;29;20282;-82
2022/02/24 07:20:35;;;;;;;9.20;2.40;;;;;7.10;100680.00;;;;10028247;29;20201;-82
2022/02/24 07:25:37;;;;;;;10.23;2.47;;;;;7.30;100674.00;;;;10037440;29;20240;-82
2022/02/24 07:30:39;;;;;;;13.43;2.77;;;;;7.50;100668.00;;;;10023174;29;20252;-82
2022/02/24 07:35:41;;;;;;;9.80;2.33;;;;;7.70;100662.00;;;;10016052;29;20722;-81
2022/02/24 07:41:02;;;;;;;10.17;3.30;;;;;8.00;100667.00;;;;10583369;27;20300;-82
2022/02/24 07:46:04;;;;;;;8.57;2.73;;;;;8.20;100662.00;;;;10535185;28;20184;-82
2022/02/24 07:51:06;;;;;;;6.23;2.57;;;;;8.40;100653.00;;;;10532056;28;20192;-81
2022/02/24 07:56:10;;;;;;;8.90;2.67;;;;;8.40;100649.00;;;;10491361;28;20228;-80
2022/02/24 08:01:12;;;;;;;12.70;2.40;;;;;8.50;100648.00;;;;10524396;28;20188;-80
2022/02/24 08:06:14;;;;;;;10.70;2.67;;;;;8.60;100640.00;;;;10519722;28;20234;-81
2022/02/24 08:11:16;;;;;;;9.43;2.37;;;;;8.70;100648.00;;;;10524111;28;20220;-82
2022/02/24 08:16:18;;;;;;;9.07;2.30;;;;;8.80;100646.00;;;;10524160;28;20199;-79
2022/02/24 08:21:20;;;;;;;9.70;2.47;;;;;9.00;100646.00;;;;10513418;28;20252;-81
2022/02/24 08:26:24;;;;;;;11.30;2.57;;;;;9.30;100637.00;;;;10495059;28;20193;-81
2022/02/24 08:31:26;;;;;;;11.53;2.77;;;;;9.50;100626.00;;;;10537128;28;20238;-81
2022/02/24 08:36:30;;;;;;;8.03;2.07;;;;;9.50;100609.00;;;;10485752;28;20217;-81
2022/02/24 08:41:32;;;;;;;10.90;2.30;;;;;9.40;100608.00;;;;10510099;28;20202;-81
2022/02/24 08:46:35;;;;;;;7.03;1.97;;;;;9.30;100597.00;;;;10528791;28;20209;-82
2022/02/24 08:51:37;;;;;;;6.80;1.97;;;;;9.50;100595.00;;;;10496756;28;20201;-81
2022/02/24 08:56:39;;;;;;;9.23;2.83;;;;;9.60;100598.00;;;;10481907;28;20221;-81
2022/02/24 09:01:42;;;;;;;7.63;2.23;;;;;9.50;100590.00;;;;10494902;28;20521;-81
2022/02/24 09:06:44;;;;;;;7.63;2.67;;;;;9.30;100576.00;;;;10478981;28;20551;-81
2022/02/24 09:11:46;;;;;;;9.43;2.40;;;;;9.20;100577.00;;;;10482246;28;20254;-81
2022/02/24 09:16:48;;;;;;;10.50;1.80;;;;;9.20;100565.00;;;;10487960;28;20580;-81
2022/02/24 09:21:50;;;;;;;6.03;2.23;;;;;9.30;100563.00;;;;10506781;28;20206;-81
2022/02/24 09:26:52;;;;;;;11.17;1.80;;;;;9.50;100557.00;;;;10472580;28;20212;-82
2022/02/24 09:31:55;;;;;;;9.83;2.40;;;;;9.90;100547.00;;;;10475416;28;20277;-81
2022/02/24 09:36:57;;;;;;;7.00;1.77;;;;;10.10;100552.00;;;;10467440;28;20280;-81
2022/02/24 09:41:59;;;;;;;11.07;2.63;;;;;9.90;100540.00;;;;10470493;28;20242;-81
2022/02/24 09:47:03;;;;;;;9.40;2.60;;;;;9.60;100515.00;;;;10458365;28;20190;-81
2022/02/24 09:52:05;;;;;;;8.97;3.13;;;;;9.80;100512.00;;;;10433321;28;20269;-80
2022/02/24 09:57:07;;;;;;;10.37;2.60;;;;;10.40;100481.00;;;;10440943;28;20245;-81
2022/02/24 10:02:10;;;;;;;4.03;1.80;;;;;10.50;100465.00;;;;10458747;28;20224;-80
2022/02/24 10:07:25;;;;;;;7.33;1.90;;;;;11.50;100434.00;;;;10447582;28;20185;-79
2022/02/24 10:12:27;;;;;;;12.27;2.33;;;;;12.00;100428.00;;;;10511171;28;20194;-80
2022/02/24 10:17:29;;;;;;;10.77;2.90;;;;;12.40;100425.00;;;;10459880;28;20205;-80
2022/02/24 10:22:34;;;;;;;8.37;2.13;;;;;12.90;100425.00;;;;10460577;28;20221;-80
2022/02/24 10:27:39;;;;;;;8.53;2.10;;;;;13.00;100421.00;;;;10460861;28;20214;-80
2022/02/24 10:32:45;;;;;;;12.67;2.53;;;;;13.50;100402.00;;;;10484245;28;20549;-80
2022/02/24 10:37:58;;;;;;;8.87;2.20;;;;;13.70;100409.00;;;;10496290;28;20206;-80
2022/02/24 10:43:20;;;;;;;4.93;1.97;;;;;13.70;100404.00;;;;10430256;28;20630;-80
2022/02/24 10:48:22;;;;;;;8.20;2.07;;;;;13.70;100397.00;;;;10474667;28;20544;-80
2022/02/24 10:53:35;;;;;;;8.03;2.40;;;;;14.10;100386.00;;;;10465183;28;20201;-80
2022/02/24 10:58:41;;;;;;;9.63;2.77;;;;;14.30;100395.00;;;;10476722;28;20671;-80
2022/02/24 11:03:48;;;;;;;10.23;2.40;;;;;14.60;100385.00;;;;10520605;28;20198;-80
2022/02/24 11:08:53;;;;;;;4.93;2.10;;;;;14.80;100374.00;;;;10482758;28;20714;-79
2022/02/24 11:13:59;;;;;;;5.65;1.88;;;;;14.90;100367.00;;;;10448953;28;20683;-79
2022/02/24 11:19:02;;;;;;;6.97;1.85;;;;;15.50;100347.00;;;;10469980;28;20200;-80
2022/02/24 11:24:05;;;;;;;6.18;1.98;;;;;15.30;100316.00;;;;10515794;28;20633;-79
2022/02/24 11:29:19;;;;;;;3.65;1.40;;;;;14.70;100290.00;;;;10521857;28;20216;-80
2022/02/24 11:34:57;;;;;;;6.20;1.67;;;;;15.00;100268.00;;;;10447683;28;20886;-80
2022/02/24 11:40:12;;;;;;;4.32;1.33;;;;;15.70;100258.00;;;;10451320;28;20209;-80
2022/02/24 11:45:26;;;;;;;2.10;1.48;;;;;15.40;100244.00;;;;10523223;28;20300;-80
2022/02/24 11:50:39;;;;;;;7.78;1.60;;;;;15.20;100231.00;;;;10440806;28;20194;-80
2022/02/24 11:55:48;;;;;;;3.45;1.30;;;;;15.10;100231.00;;;;10451645;28;20188;-80
2022/02/24 12:01:12;;;;;;;4.90;1.50;;;;;14.90;100248.00;;;;10469441;28;20202;-81
2022/02/24 12:06:19;;;;;;;3.65;1.13;;;;;14.60;100245.00;;;;10472236;28;20196;-80
2022/02/24 12:11:29;;;;;;;2.60;1.37;;;;;14.20;100226.00;;;;10474174;28;20648;-80
2022/02/24 12:16:31;;;;;;;7.00;1.57;;;;;14.40;100227.00;;;;10458007;28;20602;-81
2022/02/24 12:21:35;;;;;;;5.53;1.67;;;;;13.80;100221.00;;;;10444793;28;20259;-81
2022/02/24 12:26:46;;;;;;;6.00;2.07;;;;;13.30;100223.00;;;;10444905;28;20558;-81
2022/02/24 12:31:55;;;;;;;5.47;2.00;;;;;12.70;100199.00;;;;10478050;28;20190;-81
2022/02/24 12:37:02;;;;;;;6.10;1.30;;;;;12.30;100202.00;;;;10455027;28;20205;-80
2022/02/24 12:42:12;;;;;;;4.17;1.37;;;;;12.10;100205.00;;;;10468866;28;20216;-80
2022/02/24 12:47:14;;;;;;;6.13;1.80;;;;;12.00;100186.00;;;;10488509;28;20222;-80
2022/02/24 12:52:21;;;;;;;3.93;1.50;;;;;11.50;100199.00;;;;10475782;28;20698;-79
2022/02/24 12:57:26;;;;;;;7.03;1.60;;;;;11.40;100178.00;;;;10482931;28;20252;-79
2022/02/24 13:02:28;;;;;;;4.40;1.77;;;;;11.00;100196.00;;;;10465577;28;20197;-79
2022/02/24 13:13:03;;;;;;;6.17;2.00;;;;;10.70;100211.00;;;;10399902;28;20715;-80
2022/02/24 13:18:07;;;;;;;5.53;1.73;;;;;10.30;100220.00;;;;10486971;28;20698;-80
2022/02/24 13:23:10;;;;;;;7.57;2.57;;;;;9.90;100240.00;;;;10469593;28;20225;-81
2022/02/24 13:28:13;;;;;;;5.93;2.30;;;;;9.30;100281.00;;;;10471686;28;20201;-82
2022/02/24 13:33:15;;;;;;;4.53;0.73;;;;;7.60;100404.00;;;;10483956;28;20194;-80
2022/02/24 13:38:17;;;;;;;1.17;0.50;;;;;4.40;100395.00;;;;10479252;28;20212;-81
2022/02/24 13:43:19;;;;;;;3.97;0.50;;;;;4.00;100429.00;;;;10477610;28;20209;-82
2022/02/24 13:48:24;;;;;;;0.53;0.37;;;;;3.90;100461.00;;;;10459668;28;20190;-81
2022/02/24 13:53:30;;;;;;;1.93;0.60;;;;;3.90;100464.00;;;;10440487;28;20251;-81
2022/02/24 13:58:35;;;;;;;2.23;0.90;;;;;3.90;100471.00;;;;10473514;28;20268;-81
2022/02/24 14:03:51;;;;;;;1.57;0.83;;;;;4.30;100461.00;;;;10470368;28;20599;-81
2022/02/24 14:08:59;;;;;;;1.53;1.00;;;;;4.50;100456.00;;;;10506472;28;20220;-80
2022/02/24 14:14:03;;;;;;;2.03;0.90;;;;;4.50;100431.00;;;;10444826;28;20209;-80
2022/02/24 14:19:09;;;;;;;4.07;0.80;;;;;4.60;100417.00;;;;10466910;28;20202;-80
2022/02/24 14:24:11;;;;;;;3.33;1.03;;;;;4.90;100442.00;;;;10483840;28;20213;-80
2022/02/24 14:29:19;;;;;;;1.33;0.97;;;;;5.00;100420.00;;;;10454566;28;20641;-80
2022/02/24 14:34:21;;;;;;;2.03;1.40;;;;;5.20;100435.00;;;;10429572;28;20275;-79
2022/02/24 14:39:23;;;;;;;1.90;1.23;;;;;5.40;100438.00;;;;10428222;28;20252;-81
2022/02/24 14:44:26;;;;;;;5.27;1.00;;;;;5.40;100456.00;;;;10445020;28;20190;-82
2022/02/24 14:49:28;;;;;;;2.93;0.90;;;;;5.40;100461.00;;;;10425806;28;20281;-81
2022/02/24 14:54:34;;;;;;;1.87;1.10;;;;;5.40;100482.00;;;;10450759;28;20190;-81
2022/02/24 14:59:37;;;;;;;4.30;2.13;;;;;5.40;100492.00;;;;10457143;28;20667;-81
2022/02/24 15:04:40;;;;;;;7.17;3.10;;;;;5.50;100495.00;;;;10448410;28;20194;-81
2022/02/24 15:09:42;;;;;;;5.80;2.73;;;;;5.60;100502.00;;;;10414625;28;20541;-81
2022/02/24 15:15:05;;;;;;;4.10;1.40;;;;;5.60;100504.00;;;;10470435;28;20223;-81
2022/02/24 15:20:12;;;;;;;3.30;1.90;;;;;5.60;100502.00;;;;10477987;28;20541;-81
2022/02/24 15:25:14;;;;;;;1.83;1.40;;;;;6.80;100475.00;;;;10489516;28;20209;-81
2022/02/24 15:30:16;;;;;;;4.97;1.80;;;;;7.70;100499.00;;;;10507507;28;20201;-81
2022/02/24 15:35:18;;;;;;;2.73;1.30;;;;;6.60;100521.00;;;;10470955;28;20193;-80
2022/02/24 15:40:23;;;;;;;4.47;1.60;;;;;6.60;100525.00;;;;10461625;28;20251;-81
2022/02/24 15:45:25;;;;;;;2.83;1.53;;;;;6.70;100526.00;;;;10488835;28;20202;-81
2022/02/24 15:50:27;;;;;;;4.20;2.03;;;;;6.10;100530.00;;;;10407214;28;20190;-81
2022/02/24 15:55:30;;;;;;;3.47;2.33;;;;;5.80;100529.00;;;;10424455;28;20241;-82
2022/02/24 16:00:32;;;;;;;3.87;2.20;;;;;6.00;100538.00;;;;10490649;28;20209;-82
2022/02/24 16:05:36;;;;;;;4.47;2.37;;;;;5.90;100535.00;;;;10476671;28;20220;-81
2022/02/24 16:10:59;;;;;;;4.23;2.80;;;;;6.30;100526.00;;;;10500063;28;20256;-81
2022/02/24 16:16:03;;;;;;;4.90;3.03;;;;;6.40;100538.00;;;;10513783;28;20280;-82
2022/02/24 16:21:05;;;;;;;4.80;3.90;;;;;6.10;100535.00;;;;10486715;28;20320;-82
2022/02/24 16:26:07;;;;;;;5.63;3.50;;;;;5.70;100524.00;;;;10498639;28;20251;-82
2022/02/24 16:31:23;;;;;;;4.50;2.80;;;;;5.40;100529.00;;;;10515757;28;20247;-81
2022/02/24 16:36:37;;;;;;;8.00;3.03;;;;;5.20;100532.00;;;;10514910;28;20209;-81
2022/02/24 16:41:39;;;;;;;6.03;3.40;;;;;5.10;100525.00;;;;10477797;28;20203;-81
2022/02/24 16:46:41;;;;;;;6.70;3.03;;;;;5.00;100524.00;;;;10414500;28;20225;-81
2022/02/24 16:51:43;;;;;;;4.97;2.90;;;;;4.90;100528.00;;;;10475081;28;20209;-82
2022/02/24 16:56:45;;;;;;;4.10;2.57;;;;;4.80;100526.00;;;;10482517;28;20216;-82
2022/02/24 17:02:10;;;;;;;6.77;2.47;;;;;4.80;100520.00;;;;10506089;28;20193;-81
2022/02/24 17:07:12;;;;;;;6.80;2.97;;;;;4.80;100539.00;;;;10459176;28;20668;-81
2022/02/24 17:12:16;;;;;;;6.00;2.83;;;;;4.80;100537.00;;;;10464799;28;20213;-82
2022/02/24 17:17:18;;;;;;;7.90;3.10;;;;;4.90;100548.00;;;;10443779;28;20202;-81
2022/02/24 17:22:20;;;;;;;7.47;2.60;;;;;5.00;100596.00;;;;10474888;28;20218;-82
2022/02/24 17:27:22;;;;;;;7.03;1.70;;;;;4.90;100624.00;;;;10470150;28;20205;-81
2022/02/24 17:32:24;;;;;;;1.73;1.37;;;;;4.20;100615.00;;;;10493195;28;20227;-83
2022/02/24 17:37:27;;;;;;;2.57;0.90;;;;;3.90;100619.00;;;;10454320;28;20707;-82
2022/02/24 17:42:29;;;;;;;1.90;1.10;;;;;3.70;100620.00;;;;10465422;28;20232;-82
2022/02/24 17:47:31;;;;;;;2.53;0.93;;;;;3.60;100627.00;;;;10497961;28;20643;-82
2022/02/24 17:52:39;;;;;;;1.10;0.80;;;;;3.50;100658.00;;;;10491546;28;20706;-82
2022/02/24 17:57:51;;;;;;;3.43;1.17;;;;;3.40;100676.00;;;;10489058;28;20668;-81
2022/02/24 18:02:53;;;;;;;0.73;0.70;;;;;3.40;100684.00;;;;10439700;28;20190;-81
2022/02/24 18:07:56;;;;;;;3.07;0.87;;;;;3.30;100707.00;;;;10456301;28;20205;-82
2022/02/24 18:12:59;;;;;;;0.70;0.70;;;;;3.40;100735.00;;;;10466981;28;20256;-82
2022/02/24 18:18:01;;;;;;;3.20;1.37;;;;;3.50;100757.00;;;;10483841;28;20296;-81
2022/02/24 18:23:04;;;;;;;3.23;1.30;;;;;3.60;100772.00;;;;10490138;28;20212;-81
2022/02/24 18:28:06;;;;;;;2.00;1.23;;;;;3.60;100773.00;;;;10475134;28;20224;-81
2022/02/24 18:33:08;;;;;;;3.27;1.60;;;;;3.40;100791.00;;;;10466310;28;20223;-81
2022/02/24 18:38:10;;;;;;;5.17;1.60;;;;;3.30;100802.00;;;;10440838;28;20272;-81
2022/02/24 18:43:13;;;;;;;5.17;1.70;;;;;3.20;100810.00;;;;10439805;28;20272;-82
2022/02/24 18:48:15;;;;;;;3.47;1.70;;;;;3.10;100820.00;;;;10507883;28;20646;-80
2022/02/24 18:53:18;;;;;;;2.30;2.00;;;;;3.00;100835.00;;;;10475709;28;20220;-81
2022/02/24 18:58:20;;;;;;;2.90;2.00;;;;;3.00;100844.00;;;;10465220;28;20214;-81
2022/02/24 19:03:22;;;;;;;3.67;1.63;;;;;2.90;100850.00;;;;10449133;28;20271;-81
2022/02/24 19:08:44;;;;;;;2.50;1.40;;;;;2.90;100865.00;;;;10493392;28;20627;-81
2022/02/24 19:13:46;;;;;;;2.70;1.40;;;;;2.80;100863.00;;;;10523220;28;20551;-81
2022/02/24 19:18:48;;;;;;;4.53;1.23;;;;;2.80;100873.00;;;;10503317;28;20275;-81
2022/02/24 19:23:50;;;;;;;3.90;1.70;;;;;2.90;100880.00;;;;10464686;28;20687;-81
2022/02/24 19:28:53;;;;;;;2.70;1.33;;;;;2.90;100888.00;;;;10469388;28;20643;-81
2022/02/24 19:33:57;;;;;;;7.27;1.70;;;;;2.90;100899.00;;;;10461387;28;20201;-81
2022/02/24 19:39:02;;;;;;;4.43;1.50;;;;;2.90;100909.00;;;;10463448;28;20225;-81
2022/02/24 19:44:04;;;;;;;2.20;1.57;;;;;2.90;100920.00;;;;10468251;28;20251;-81
2022/02/24 19:49:06;;;;;;;6.37;1.67;;;;;2.90;100932.00;;;;10476916;28;20921;-81
2022/02/24 19:54:09;;;;;;;4.00;1.60;;;;;2.90;100947.00;;;;10463355;28;20276;-81
2022/02/24 19:59:13;;;;;;;2.87;1.80;;;;;3.00;100961.00;;;;10447215;28;20241;-82
2022/02/24 20:04:17;;;;;;;4.83;1.63;;;;;3.00;100976.00;;;;10447636;28;20193;-81
2022/02/24 20:09:19;;;;;;;2.97;1.80;;;;;3.00;100989.00;;;;10480294;28;20186;-81
2022/02/24 20:14:21;;;;;;;2.53;2.00;;;;;3.20;101003.00;;;;10447697;28;20224;-81
2022/02/24 20:19:23;;;;;;;4.43;2.23;;;;;3.20;101008.00;;;;10447611;28;20245;-81
2022/02/24 20:24:27;;;;;;;6.93;3.10;;;;;3.00;101020.00;;;;10463639;28;20213;-80
2022/02/24 20:29:29;;;;;;;13.17;2.63;;;;;2.90;101017.00;;;;10463518;28;20215;-80
2022/02/24 20:34:31;;;;;;;4.27;1.90;;;;;2.80;101034.00;;;;10454890;28;20745;-81
2022/02/24 20:39:35;;;;;;;5.20;1.87;;;;;2.70;101038.00;;;;10482950;28;20236;-81
2022/02/24 20:44:39;;;;;;;4.03;1.70;;;;;2.70;101049.00;;;;10465449;28;20185;-81
2022/02/24 20:49:41;;;;;;;3.13;1.97;;;;;2.70;101052.00;;;;10486261;28;20193;-80
2022/02/24 20:54:43;;;;;;;3.00;1.47;;;;;2.70;101055.00;;;;10428533;28;20217;-82
2022/02/24 20:59:46;;;;;;;3.53;1.83;;;;;2.80;101076.00;;;;10494863;28;20209;-81
2022/02/24 21:04:49;;;;;;;4.77;1.70;;;;;2.80;101087.00;;;;10457844;28;20660;-81
2022/02/24 21:09:52;;;;;;;6.43;1.10;;;;;2.80;101096.00;;;;10470333;28;20215;-80
2022/02/24 21:14:54;;;;;;;1.97;1.70;;;;;2.90;101107.00;;;;10486344;28;20262;-81
2022/02/24 21:19:58;;;;;;;3.83;1.67;;;;;2.90;101127.00;;;;10511584;28;20224;-81
2022/02/24 21:25:01;;;;;;;2.73;1.33;;;;;2.80;101131.00;;;;10496098;28;20753;-81
2022/02/24 21:30:05;;;;;;;4.70;1.67;;;;;2.80;101132.00;;;;10452563;28;20224;-81
2022/02/24 21:35:09;;;;;;;5.53;1.70;;;;;2.80;101146.00;;;;10442800;28;20256;-80
2022/02/24 21:40:11;;;;;;;3.77;2.00;;;;;2.70;101151.00;;;;10430972;28;20215;-82
2022/02/24 21:45:13;;;;;;;8.43;1.67;;;;;2.70;101163.00;;;;10463594;28;20225;-81
2022/02/24 21:50:20;;;;;;;6.80;1.87;;;;;2.60;101168.00;;;;10430164;28;20186;-81
2022/02/24 21:55:22;;;;;;;5.30;2.03;;;;;2.60;101168.00;;;;10429368;28;20198;-80
2022/02/24 22:00:24;;;;;;;5.17;1.60;;;;;2.70;101181.00;;;;10434583;28;20283;-81
2022/02/24 22:05:27;;;;;;;6.87;2.47;;;;;2.60;101177.00;;;;10473260;28;20201;-81
2022/02/24 22:10:28;;;;;;;11.87;2.60;;;;;2.60;101182.00;;;;10462060;28;20193;-81
2022/02/24 22:15:30;;;;;;;8.93;1.73;;;;;2.70;101184.00;;;;10463733;28;20198;-81
2022/02/24 22:20:33;;;;;;;4.43;1.83;;;;;2.80;101199.00;;;;10444687;28;20238;-81
2022/02/24 22:25:35;;;;;;;7.40;2.43;;;;;2.80;101208.00;;;;10443138;28;20276;-81
2022/02/24 22:30:36;;;;;;;7.50;1.97;;;;;2.80;101213.00;;;;10467604;28;20186;-80
2022/02/24 22:35:39;;;;;;;8.93;2.50;;;;;2.90;101223.00;;;;10491918;28;20215;-80
2022/02/24 22:40:40;;;;;;;9.73;3.17;;;;;2.90;101229.00;;;;10429017;28;20245;-81
2022/02/24 22:45:46;;;;;;;7.40;2.50;;;;;2.90;101236.00;;;;10443586;28;20642;-81
2022/02/24 22:50:48;;;;;;;8.00;2.27;;;;;2.80;101246.00;;;;10441668;28;20535;-81
2022/02/24 22:55:50;;;;;;;9.83;2.60;;;;;2.70;101259.00;;;;10441867;28;20645;-81
2022/02/24 23:00:52;;;;;;;5.43;2.13;;;;;2.60;101265.00;;;;10421753;28;20210;-81
2022/02/24 23:05:54;;;;;;;9.80;3.60;;;;;2.50;101270.00;;;;10491424;28;20199;-81
2022/02/24 23:10:58;;;;;;;8.00;2.43;;;;;2.40;101279.00;;;;10486841;28;20224;-80
2022/02/24 23:16:04;;;;;;;9.37;3.00;;;;;2.40;101280.00;;;;10461964;28;20660;-79
2022/02/24 23:21:06;;;;;;;4.03;2.03;;;;;2.30;101295.00;;;;10463778;28;20206;-81
2022/02/24 23:26:08;;;;;;;7.63;2.30;;;;;2.20;101285.00;;;;10497506;28;20263;-80
2022/02/24 23:31:10;;;;;;;10.20;2.57;;;;;2.20;101289.00;;;;10432012;28;20234;-80
2022/02/24 23:36:12;;;;;;;9.73;2.60;;;;;2.20;101305.00;;;;10476945;28;20218;-80
2022/02/24 23:41:14;;;;;;;7.57;2.33;;;;;2.20;101306.00;;;;10440939;28;20276;-81
2022/02/24 23:46:16;;;;;;;10.83;2.53;;;;;2.10;101311.00;;;;10439895;28;20255;-81
2022/02/24 23:51:19;;;;;;;8.63;2.30;;;;;2.10;101312.00;;;;10448852;28;20189;-81
2022/02/24 23:56:21;;;;;;;3.90;2.07;;;;;2.10;101319.00;;;;10450058;28;20195;-81
